sensor_id;sensor_type;location;lat;lon;timestamp;temperature;humidity
4429;DHT22;2227;47.810;8.810;2024-01-06T00:01:24;6.20;99.90
4429;DHT22;2227;47.810;8.810;2024-01-06T00:03:51;6.20;99.90
4429;DHT22;2227;47.810;8.810;2024-01-06T00:06:18;6.30;99.90
4429;DHT22;2227;47.810;8.810;2024-01-06T00:08:45;6.30;99.90
4429;DHT22;2227;47.810;8.810;2024-01-06T00:11:12;6.10;99.90
4429;DHT22;2227;47.810;8.810;2024-01-06T00:13:39;6.10;99.90
4429;DHT22;2227;47.810;8.810;2024-01-06T00:16:06;6.20;99.90
4429;DHT22;2227;47.810;8.810;2024-01-06T00:18:33;6.20;99.90
4429;DHT22;2227;47.810;8.810;2024-01-06T00:21:00;6.10;99.90
4429;DHT22;2227;47.810;8.810;2024-01-06T00:23:27;6.00;99.90
4429;DHT22;2227;47.810;8.810;2024-01-06T00:25:53;6.10;99.90
4429;DHT22;2227;47.810;8.810;2024-01-06T00:28:20;6.10;99.90
4429;DHT22;2227;47.810;8.810;2024-01-06T05:32:54;5.70;99.90
4429;DHT22;2227;47.810;8.810;2024-01-06T05:35:21;5.60;99.90
4429;DHT22;2227;47.810;8.810;2024-01-06T05:37:48;5.60;99.90
4429;DHT22;2227;47.810;8.810;2024-01-06T05:40:14;5.60;99.90
4429;DHT22;2227;47.810;8.810;2024-01-06T05:47:47;5.70;99.90
4429;DHT22;2227;47.810;8.810;2024-01-06T05:50:17;5.70;99.90
4429;DHT22;2227;47.810;8.810;2024-01-06T05:52:45;5.80;99.90
4429;DHT22;2227;47.810;8.810;2024-01-06T05:55:13;5.70;99.90
4429;DHT22;2227;47.810;8.810;2024-01-06T05:57:40;5.70;99.90
4429;DHT22;2227;47.810;8.810;2024-01-06T06:00:08;5.70;99.90
4429;DHT22;2227;47.810;8.810;2024-01-06T06:02:35;5.70;99.90
4429;DHT22;2227;47.810;8.810;2024-01-06T06:05:03;5.70;99.90
4429;DHT22;2227;47.810;8.810;2024-01-06T06:07:29;5.70;99.90
4429;DHT22;2227;47.810;8.810;2024-01-06T06:09:56;5.70;99.90
4429;DHT22;2227;47.810;8.810;2024-01-06T06:12:23;5.70;99.90
4429;DHT22;2227;47.810;8.810;2024-01-06T06:14:50;5.70;99.90
4429;DHT22;2227;47.810;8.810;2024-01-06T06:17:17;5.70;99.90
4429;DHT22;2227;47.810;8.810;2024-01-06T06:19:43;5.60;99.90
4429;DHT22;2227;47.810;8.810;2024-01-06T06:22:10;5.60;99.90
4429;DHT22;2227;47.810;8.810;2024-01-06T06:24:37;5.50;99.90
4429;DHT22;2227;47.810;8.810;2024-01-06T06:27:04;5.50;99.90
4429;DHT22;2227;47.810;8.810;2024-01-06T06:29:31;5.60;99.90
4429;DHT22;2227;47.810;8.810;2024-01-06T06:31:58;5.60;99.90
4429;DHT22;2227;47.810;8.810;2024-01-06T06:34:25;5.70;99.90
4429;DHT22;2227;47.810;8.810;2024-01-06T06:36:52;5.60;99.90
4429;DHT22;2227;47.810;8.810;2024-01-06T06:39:18;5.70;99.90
4429;DHT22;2227;47.810;8.810;2024-01-06T06:41:46;5.80;99.90
4429;DHT22;2227;47.810;8.810;2024-01-06T06:44:12;5.80;99.90
4429;DHT22;2227;47.810;8.810;2024-01-06T06:46:39;5.80;99.90
4429;DHT22;2227;47.810;8.810;2024-01-06T06:49:06;5.70;99.90
4429;DHT22;2227;47.810;8.810;2024-01-06T06:51:33;5.70;99.90
4429;DHT22;2227;47.810;8.810;2024-01-06T06:54:00;5.80;99.90
4429;DHT22;2227;47.810;8.810;2024-01-06T06:56:27;5.80;99.90
4429;DHT22;2227;47.810;8.810;2024-01-06T06:58:54;5.80;99.90
4429;DHT22;2227;47.810;8.810;2024-01-06T07:01:20;5.80;99.90
4429;DHT22;2227;47.810;8.810;2024-01-06T07:03:47;5.70;99.90
4429;DHT22;2227;47.810;8.810;2024-01-06T07:06:14;5.70;99.90
4429;DHT22;2227;47.810;8.810;2024-01-06T07:08:42;5.70;99.90
4429;DHT22;2227;47.810;8.810;2024-01-06T07:11:09;5.70;99.90
4429;DHT22;2227;47.810;8.810;2024-01-06T07:13:37;5.60;99.90
4429;DHT22;2227;47.810;8.810;2024-01-06T07:16:05;5.60;99.90
4429;DHT22;2227;47.810;8.810;2024-01-06T07:18:43;5.60;99.90
4429;DHT22;2227;47.810;8.810;2024-01-06T07:21:12;5.60;99.90
4429;DHT22;2227;47.810;8.810;2024-01-06T07:23:39;5.60;99.90
4429;DHT22;2227;47.810;8.810;2024-01-06T07:26:06;5.40;99.90
4429;DHT22;2227;47.810;8.810;2024-01-06T07:28:34;5.30;99.90
4429;DHT22;2227;47.810;8.810;2024-01-06T07:31:01;5.40;99.90
4429;DHT22;2227;47.810;8.810;2024-01-06T07:33:28;5.40;99.90
4429;DHT22;2227;47.810;8.810;2024-01-06T07:35:55;5.40;99.90
4429;DHT22;2227;47.810;8.810;2024-01-06T07:38:22;5.50;99.90
4429;DHT22;2227;47.810;8.810;2024-01-06T07:40:49;5.50;99.90
4429;DHT22;2227;47.810;8.810;2024-01-06T07:43:15;5.40;99.90
4429;DHT22;2227;47.810;8.810;2024-01-06T07:45:42;5.50;99.90
4429;DHT22;2227;47.810;8.810;2024-01-06T07:48:09;5.50;99.90
4429;DHT22;2227;47.810;8.810;2024-01-06T07:50:36;5.50;99.90
4429;DHT22;2227;47.810;8.810;2024-01-06T07:53:03;5.40;99.90
4429;DHT22;2227;47.810;8.810;2024-01-06T07:55:30;5.40;99.90
4429;DHT22;2227;47.810;8.810;2024-01-06T07:57:56;5.40;99.90
4429;DHT22;2227;47.810;8.810;2024-01-06T08:00:23;5.50;99.90
4429;DHT22;2227;47.810;8.810;2024-01-06T08:02:51;5.50;99.90
4429;DHT22;2227;47.810;8.810;2024-01-06T08:05:17;5.50;99.90
4429;DHT22;2227;47.810;8.810;2024-01-06T08:07:44;5.50;99.90
4429;DHT22;2227;47.810;8.810;2024-01-06T08:10:11;5.50;99.90
4429;DHT22;2227;47.810;8.810;2024-01-06T08:12:38;5.50;99.90
4429;DHT22;2227;47.810;8.810;2024-01-06T08:15:05;5.50;99.90
4429;DHT22;2227;47.810;8.810;2024-01-06T08:17:34;5.60;99.90
4429;DHT22;2227;47.810;8.810;2024-01-06T08:20:01;5.60;99.90
4429;DHT22;2227;47.810;8.810;2024-01-06T08:22:28;5.50;99.90
4429;DHT22;2227;47.810;8.810;2024-01-06T08:24:54;5.50;99.90
4429;DHT22;2227;47.810;8.810;2024-01-06T08:27:21;5.60;99.90
4429;DHT22;2227;47.810;8.810;2024-01-06T08:29:50;5.70;99.90
4429;DHT22;2227;47.810;8.810;2024-01-06T08:32:17;5.80;99.90
4429;DHT22;2227;47.810;8.810;2024-01-06T08:34:44;5.80;99.90
4429;DHT22;2227;47.810;8.810;2024-01-06T08:37:10;5.90;99.90
4429;DHT22;2227;47.810;8.810;2024-01-06T08:39:37;6.00;99.90
4429;DHT22;2227;47.810;8.810;2024-01-06T08:42:04;6.20;99.90
4429;DHT22;2227;47.810;8.810;2024-01-06T08:44:31;6.40;99.90
4429;DHT22;2227;47.810;8.810;2024-01-06T08:46:58;6.50;99.90
4429;DHT22;2227;47.810;8.810;2024-01-06T08:49:25;6.60;99.90
4429;DHT22;2227;47.810;8.810;2024-01-06T08:51:52;6.50;99.90
4429;DHT22;2227;47.810;8.810;2024-01-06T08:54:18;6.60;99.90
4429;DHT22;2227;47.810;8.810;2024-01-06T08:56:45;6.50;99.90
4429;DHT22;2227;47.810;8.810;2024-01-06T08:59:12;6.40;99.90
4429;DHT22;2227;47.810;8.810;2024-01-06T09:01:39;6.40;99.90
4429;DHT22;2227;47.810;8.810;2024-01-06T09:04:06;6.50;99.90
4429;DHT22;2227;47.810;8.810;2024-01-06T09:06:34;6.60;99.90
4429;DHT22;2227;47.810;8.810;2024-01-06T09:09:01;6.60;99.90
4429;DHT22;2227;47.810;8.810;2024-01-06T09:11:27;6.80;99.90
4429;DHT22;2227;47.810;8.810;2024-01-06T09:13:54;6.90;99.90
4429;DHT22;2227;47.810;8.810;2024-01-06T09:16:21;6.90;99.90
4429;DHT22;2227;47.810;8.810;2024-01-06T09:18:48;6.90;99.90
4429;DHT22;2227;47.810;8.810;2024-01-06T09:21:16;7.00;99.90
4429;DHT22;2227;47.810;8.810;2024-01-06T09:23:44;7.00;99.90
4429;DHT22;2227;47.810;8.810;2024-01-06T09:26:11;7.00;99.90
4429;DHT22;2227;47.810;8.810;2024-01-06T09:28:38;7.10;99.90
4429;DHT22;2227;47.810;8.810;2024-01-06T09:31:04;7.00;99.90
4429;DHT22;2227;47.810;8.810;2024-01-06T09:33:31;7.00;99.90
4429;DHT22;2227;47.810;8.810;2024-01-06T09:36:01;7.00;99.90
4429;DHT22;2227;47.810;8.810;2024-01-06T09:38:28;7.00;99.90
4429;DHT22;2227;47.810;8.810;2024-01-06T09:40:55;7.00;99.90
4429;DHT22;2227;47.810;8.810;2024-01-06T09:43:22;7.00;99.90
4429;DHT22;2227;47.810;8.810;2024-01-06T09:45:57;7.00;99.90
4429;DHT22;2227;47.810;8.810;2024-01-06T09:48:29;7.20;99.90
4429;DHT22;2227;47.810;8.810;2024-01-06T09:51:01;7.30;99.90
4429;DHT22;2227;47.810;8.810;2024-01-06T09:53:34;7.40;99.90
4429;DHT22;2227;47.810;8.810;2024-01-06T09:56:04;7.60;99.90
4429;DHT22;2227;47.810;8.810;2024-01-06T09:58:31;7.90;99.90
4429;DHT22;2227;47.810;8.810;2024-01-06T10:01:01;7.90;99.90
4429;DHT22;2227;47.810;8.810;2024-01-06T10:03:28;8.10;99.90
4429;DHT22;2227;47.810;8.810;2024-01-06T10:05:56;8.00;99.90
4429;DHT22;2227;47.810;8.810;2024-01-06T10:08:27;7.90;99.90
4429;DHT22;2227;47.810;8.810;2024-01-06T10:10:54;7.90;99.90
4429;DHT22;2227;47.810;8.810;2024-01-06T10:13:20;7.80;99.90
4429;DHT22;2227;47.810;8.810;2024-01-06T10:15:47;7.90;99.90
4429;DHT22;2227;47.810;8.810;2024-01-06T10:18:14;8.00;99.90
4429;DHT22;2227;47.810;8.810;2024-01-06T10:20:43;8.10;99.90
4429;DHT22;2227;47.810;8.810;2024-01-06T10:23:11;8.20;99.90
4429;DHT22;2227;47.810;8.810;2024-01-06T10:25:37;8.10;99.90
4429;DHT22;2227;47.810;8.810;2024-01-06T10:28:04;8.00;99.90
4429;DHT22;2227;47.810;8.810;2024-01-06T10:30:31;7.90;99.90
4429;DHT22;2227;47.810;8.810;2024-01-06T10:32:58;7.80;99.90
4429;DHT22;2227;47.810;8.810;2024-01-06T10:35:25;7.90;99.90
4429;DHT22;2227;47.810;8.810;2024-01-06T10:37:52;8.00;99.90
4429;DHT22;2227;47.810;8.810;2024-01-06T10:40:20;8.10;99.90
4429;DHT22;2227;47.810;8.810;2024-01-06T10:42:47;8.00;99.90
4429;DHT22;2227;47.810;8.810;2024-01-06T10:45:14;7.90;99.90
4429;DHT22;2227;47.810;8.810;2024-01-06T10:47:42;7.90;99.90
4429;DHT22;2227;47.810;8.810;2024-01-06T10:50:10;7.90;99.90
4429;DHT22;2227;47.810;8.810;2024-01-06T10:52:38;7.90;99.90
4429;DHT22;2227;47.810;8.810;2024-01-06T10:55:05;7.90;99.90
4429;DHT22;2227;47.810;8.810;2024-01-06T10:57:32;8.00;99.90
4429;DHT22;2227;47.810;8.810;2024-01-06T11:00:00;8.10;99.90
4429;DHT22;2227;47.810;8.810;2024-01-06T11:02:27;8.00;99.90
4429;DHT22;2227;47.810;8.810;2024-01-06T11:04:55;8.10;99.90
4429;DHT22;2227;47.810;8.810;2024-01-06T11:07:24;8.10;99.90
4429;DHT22;2227;47.810;8.810;2024-01-06T11:10:01;8.20;99.90
4429;DHT22;2227;47.810;8.810;2024-01-06T11:12:29;8.20;99.90
4429;DHT22;2227;47.810;8.810;2024-01-06T11:14:56;8.10;99.90
4429;DHT22;2227;47.810;8.810;2024-01-06T11:20:27;8.10;99.90
4429;DHT22;2227;47.810;8.810;2024-01-06T11:22:54;8.30;99.90
4429;DHT22;2227;47.810;8.810;2024-01-06T11:25:21;8.20;99.90
4429;DHT22;2227;47.810;8.810;2024-01-06T11:27:49;8.10;99.90
4429;DHT22;2227;47.810;8.810;2024-01-06T11:30:24;7.90;99.90
4429;DHT22;2227;47.810;8.810;2024-01-06T11:32:52;7.90;99.90
4429;DHT22;2227;47.810;8.810;2024-01-06T11:35:21;7.90;99.90
4429;DHT22;2227;47.810;8.810;2024-01-06T11:43:00;8.10;99.90
4429;DHT22;2227;47.810;8.810;2024-01-06T11:48:08;7.90;99.90
4429;DHT22;2227;47.810;8.810;2024-01-06T11:50:37;7.60;99.90
4429;DHT22;2227;47.810;8.810;2024-01-06T11:53:06;7.60;99.90
4429;DHT22;2227;47.810;8.810;2024-01-06T11:55:34;7.70;99.90
4429;DHT22;2227;47.810;8.810;2024-01-06T11:58:02;7.80;99.90
4429;DHT22;2227;47.810;8.810;2024-01-06T12:00:32;7.70;99.90
4429;DHT22;2227;47.810;8.810;2024-01-06T12:03:00;7.60;99.90
4429;DHT22;2227;47.810;8.810;2024-01-06T12:05:28;7.80;99.90
4429;DHT22;2227;47.810;8.810;2024-01-06T12:08:02;7.80;99.90
4429;DHT22;2227;47.810;8.810;2024-01-06T12:10:33;7.90;99.90
4429;DHT22;2227;47.810;8.810;2024-01-06T12:13:06;8.10;99.90
4429;DHT22;2227;47.810;8.810;2024-01-06T12:15:40;8.30;99.90
4429;DHT22;2227;47.810;8.810;2024-01-06T12:18:08;8.50;99.90
4429;DHT22;2227;47.810;8.810;2024-01-06T12:20:35;8.60;99.90
4429;DHT22;2227;47.810;8.810;2024-01-06T12:23:02;8.60;99.90
4429;DHT22;2227;47.810;8.810;2024-01-06T12:25:32;8.50;99.90
4429;DHT22;2227;47.810;8.810;2024-01-06T12:28:06;8.60;99.90
4429;DHT22;2227;47.810;8.810;2024-01-06T12:30:33;8.30;99.90
4429;DHT22;2227;47.810;8.810;2024-01-06T12:33:02;8.00;99.90
4429;DHT22;2227;47.810;8.810;2024-01-06T12:35:29;7.80;99.90
4429;DHT22;2227;47.810;8.810;2024-01-06T12:37:55;7.80;99.90
4429;DHT22;2227;47.810;8.810;2024-01-06T12:40:22;8.00;99.90
4429;DHT22;2227;47.810;8.810;2024-01-06T12:42:49;8.20;99.90
4429;DHT22;2227;47.810;8.810;2024-01-06T12:45:16;8.20;99.90
4429;DHT22;2227;47.810;8.810;2024-01-06T12:47:43;8.30;99.90
4429;DHT22;2227;47.810;8.810;2024-01-06T12:50:10;8.30;99.90
4429;DHT22;2227;47.810;8.810;2024-01-06T12:52:37;8.20;99.90
4429;DHT22;2227;47.810;8.810;2024-01-06T12:55:09;8.20;99.90
4429;DHT22;2227;47.810;8.810;2024-01-06T12:57:36;8.10;99.90
4429;DHT22;2227;47.810;8.810;2024-01-06T13:00:03;8.10;99.90
4429;DHT22;2227;47.810;8.810;2024-01-06T13:02:32;7.90;99.90
4429;DHT22;2227;47.810;8.810;2024-01-06T13:04:59;7.90;99.90
4429;DHT22;2227;47.810;8.810;2024-01-06T13:07:25;7.80;99.90
4429;DHT22;2227;47.810;8.810;2024-01-06T13:09:52;7.80;99.90
4429;DHT22;2227;47.810;8.810;2024-01-06T13:12:19;7.80;99.90
4429;DHT22;2227;47.810;8.810;2024-01-06T13:14:46;7.80;99.90
4429;DHT22;2227;47.810;8.810;2024-01-06T13:17:14;7.70;99.90
4429;DHT22;2227;47.810;8.810;2024-01-06T13:19:41;7.80;99.90
4429;DHT22;2227;47.810;8.810;2024-01-06T13:22:08;7.60;99.90
4429;DHT22;2227;47.810;8.810;2024-01-06T13:24:35;7.50;99.90
4429;DHT22;2227;47.810;8.810;2024-01-06T13:27:02;7.50;99.90
4429;DHT22;2227;47.810;8.810;2024-01-06T13:29:29;7.60;99.90
4429;DHT22;2227;47.810;8.810;2024-01-06T13:31:56;7.60;99.90
4429;DHT22;2227;47.810;8.810;2024-01-06T13:34:24;7.40;99.90
4429;DHT22;2227;47.810;8.810;2024-01-06T13:36:51;7.40;99.90
4429;DHT22;2227;47.810;8.810;2024-01-06T13:39:20;7.40;99.90
4429;DHT22;2227;47.810;8.810;2024-01-06T13:41:48;7.50;99.90
4429;DHT22;2227;47.810;8.810;2024-01-06T13:44:16;7.50;99.90
4429;DHT22;2227;47.810;8.810;2024-01-06T13:46:42;7.50;99.90
4429;DHT22;2227;47.810;8.810;2024-01-06T13:49:11;7.40;99.90
4429;DHT22;2227;47.810;8.810;2024-01-06T13:51:39;7.50;99.90
4429;DHT22;2227;47.810;8.810;2024-01-06T13:54:07;7.60;99.90
4429;DHT22;2227;47.810;8.810;2024-01-06T13:56:34;7.60;99.90
4429;DHT22;2227;47.810;8.810;2024-01-06T13:59:00;7.60;99.90
4429;DHT22;2227;47.810;8.810;2024-01-06T14:01:27;7.70;99.90
4429;DHT22;2227;47.810;8.810;2024-01-06T14:03:55;7.80;99.90
4429;DHT22;2227;47.810;8.810;2024-01-06T14:06:28;7.80;99.90
4429;DHT22;2227;47.810;8.810;2024-01-06T14:08:57;7.70;99.90
4429;DHT22;2227;47.810;8.810;2024-01-06T14:11:26;7.70;99.90
4429;DHT22;2227;47.810;8.810;2024-01-06T14:13:53;7.70;99.90
4429;DHT22;2227;47.810;8.810;2024-01-06T14:16:20;7.70;99.90
4429;DHT22;2227;47.810;8.810;2024-01-06T14:18:49;7.70;99.90
4429;DHT22;2227;47.810;8.810;2024-01-06T14:21:16;7.70;99.90
4429;DHT22;2227;47.810;8.810;2024-01-06T14:23:46;7.60;99.90
4429;DHT22;2227;47.810;8.810;2024-01-06T14:26:17;7.50;99.90
4429;DHT22;2227;47.810;8.810;2024-01-06T14:28:47;7.50;99.90
4429;DHT22;2227;47.810;8.810;2024-01-06T14:31:14;7.40;99.90
4429;DHT22;2227;47.810;8.810;2024-01-06T14:33:41;7.40;99.90
4429;DHT22;2227;47.810;8.810;2024-01-06T14:36:08;7.40;99.90
4429;DHT22;2227;47.810;8.810;2024-01-06T14:38:35;7.40;99.90
4429;DHT22;2227;47.810;8.810;2024-01-06T14:41:02;7.40;99.90
4429;DHT22;2227;47.810;8.810;2024-01-06T14:43:28;7.40;99.90
4429;DHT22;2227;47.810;8.810;2024-01-06T14:45:56;7.30;99.90
4429;DHT22;2227;47.810;8.810;2024-01-06T14:48:23;7.20;99.90
4429;DHT22;2227;47.810;8.810;2024-01-06T14:50:51;7.20;99.90
4429;DHT22;2227;47.810;8.810;2024-01-06T14:53:18;7.20;99.90
4429;DHT22;2227;47.810;8.810;2024-01-06T14:55:45;7.10;99.90
4429;DHT22;2227;47.810;8.810;2024-01-06T14:58:11;7.10;99.90
4429;DHT22;2227;47.810;8.810;2024-01-06T15:00:39;7.00;99.90
4429;DHT22;2227;47.810;8.810;2024-01-06T15:03:06;7.10;99.90
4429;DHT22;2227;47.810;8.810;2024-01-06T15:05:32;7.10;99.90
4429;DHT22;2227;47.810;8.810;2024-01-06T15:07:59;7.10;99.90
4429;DHT22;2227;47.810;8.810;2024-01-06T15:10:26;7.10;99.90
4429;DHT22;2227;47.810;8.810;2024-01-06T15:12:53;7.10;99.90
4429;DHT22;2227;47.810;8.810;2024-01-06T15:15:20;6.90;99.90
4429;DHT22;2227;47.810;8.810;2024-01-06T15:17:47;7.00;99.90
4429;DHT22;2227;47.810;8.810;2024-01-06T15:20:13;7.00;99.90
4429;DHT22;2227;47.810;8.810;2024-01-06T15:22:40;7.00;99.90
4429;DHT22;2227;47.810;8.810;2024-01-06T15:25:07;6.90;99.90
4429;DHT22;2227;47.810;8.810;2024-01-06T15:27:34;6.90;99.90
4429;DHT22;2227;47.810;8.810;2024-01-06T15:30:01;6.90;99.90
4429;DHT22;2227;47.810;8.810;2024-01-06T15:32:34;6.90;99.90
4429;DHT22;2227;47.810;8.810;2024-01-06T15:35:01;6.90;99.90
4429;DHT22;2227;47.810;8.810;2024-01-06T15:37:32;6.90;99.90
4429;DHT22;2227;47.810;8.810;2024-01-06T15:39:58;6.90;99.90
4429;DHT22;2227;47.810;8.810;2024-01-06T15:42:26;6.90;99.90
4429;DHT22;2227;47.810;8.810;2024-01-06T15:44:53;6.90;99.90
4429;DHT22;2227;47.810;8.810;2024-01-06T15:47:19;6.70;99.90
4429;DHT22;2227;47.810;8.810;2024-01-06T15:49:47;6.80;99.90
4429;DHT22;2227;47.810;8.810;2024-01-06T15:52:14;6.80;99.90
4429;DHT22;2227;47.810;8.810;2024-01-06T15:54:40;6.80;99.90
4429;DHT22;2227;47.810;8.810;2024-01-06T15:57:07;6.80;99.90
4429;DHT22;2227;47.810;8.810;2024-01-06T15:59:36;6.80;99.90
4429;DHT22;2227;47.810;8.810;2024-01-06T16:02:03;6.80;99.90
4429;DHT22;2227;47.810;8.810;2024-01-06T16:04:29;6.80;99.90
4429;DHT22;2227;47.810;8.810;2024-01-06T16:06:57;6.80;99.90
4429;DHT22;2227;47.810;8.810;2024-01-06T16:09:24;6.80;99.90
4429;DHT22;2227;47.810;8.810;2024-01-06T16:11:53;6.80;99.90
4429;DHT22;2227;47.810;8.810;2024-01-06T16:14:24;6.70;99.90
4429;DHT22;2227;47.810;8.810;2024-01-06T16:16:53;6.60;99.90
4429;DHT22;2227;47.810;8.810;2024-01-06T16:19:20;6.60;99.90
4429;DHT22;2227;47.810;8.810;2024-01-06T16:21:47;6.50;99.90
4429;DHT22;2227;47.810;8.810;2024-01-06T16:24:20;6.40;99.90
4429;DHT22;2227;47.810;8.810;2024-01-06T16:26:53;6.30;99.90
4429;DHT22;2227;47.810;8.810;2024-01-06T16:29:20;6.30;99.90
4429;DHT22;2227;47.810;8.810;2024-01-06T16:31:46;6.30;99.90
4429;DHT22;2227;47.810;8.810;2024-01-06T16:34:14;6.30;99.90
4429;DHT22;2227;47.810;8.810;2024-01-06T16:36:41;6.40;99.90
4429;DHT22;2227;47.810;8.810;2024-01-06T16:39:09;6.40;99.90
4429;DHT22;2227;47.810;8.810;2024-01-06T16:41:36;6.40;99.90
4429;DHT22;2227;47.810;8.810;2024-01-06T16:44:03;6.20;99.90
4429;DHT22;2227;47.810;8.810;2024-01-06T16:46:30;6.20;99.90
4429;DHT22;2227;47.810;8.810;2024-01-06T16:48:56;6.30;99.90
4429;DHT22;2227;47.810;8.810;2024-01-06T16:51:23;6.30;99.90
4429;DHT22;2227;47.810;8.810;2024-01-06T16:53:50;6.10;99.90
4429;DHT22;2227;47.810;8.810;2024-01-06T16:56:19;6.00;99.90
4429;DHT22;2227;47.810;8.810;2024-01-06T16:58:45;6.00;99.90
4429;DHT22;2227;47.810;8.810;2024-01-06T17:01:12;6.00;99.90
4429;DHT22;2227;47.810;8.810;2024-01-06T17:03:40;6.10;99.90
4429;DHT22;2227;47.810;8.810;2024-01-06T17:06:07;6.00;99.90
4429;DHT22;2227;47.810;8.810;2024-01-06T17:08:36;6.00;99.90
4429;DHT22;2227;47.810;8.810;2024-01-06T17:11:04;6.10;99.90
4429;DHT22;2227;47.810;8.810;2024-01-06T17:13:33;6.00;99.90
4429;DHT22;2227;47.810;8.810;2024-01-06T17:16:00;6.10;99.90
4429;DHT22;2227;47.810;8.810;2024-01-06T17:18:27;6.20;99.90
4429;DHT22;2227;47.810;8.810;2024-01-06T17:20:53;6.20;99.90
4429;DHT22;2227;47.810;8.810;2024-01-06T17:23:21;6.10;99.90
4429;DHT22;2227;47.810;8.810;2024-01-06T17:25:47;6.10;99.90
4429;DHT22;2227;47.810;8.810;2024-01-06T17:28:14;6.00;99.90
4429;DHT22;2227;47.810;8.810;2024-01-06T17:30:41;5.90;99.90
4429;DHT22;2227;47.810;8.810;2024-01-06T17:33:08;5.90;99.90
4429;DHT22;2227;47.810;8.810;2024-01-06T17:35:35;5.90;99.90
4429;DHT22;2227;47.810;8.810;2024-01-06T17:38:02;5.90;99.90
4429;DHT22;2227;47.810;8.810;2024-01-06T17:40:28;5.90;99.90
4429;DHT22;2227;47.810;8.810;2024-01-06T17:42:56;5.90;99.90
4429;DHT22;2227;47.810;8.810;2024-01-06T17:45:23;5.80;99.90
4429;DHT22;2227;47.810;8.810;2024-01-06T17:47:51;5.80;99.90
4429;DHT22;2227;47.810;8.810;2024-01-06T17:50:18;5.80;99.90
4429;DHT22;2227;47.810;8.810;2024-01-06T17:52:45;5.80;99.90
4429;DHT22;2227;47.810;8.810;2024-01-06T17:55:12;5.80;99.90
4429;DHT22;2227;47.810;8.810;2024-01-06T17:57:40;5.70;99.90
4429;DHT22;2227;47.810;8.810;2024-01-06T18:00:07;5.70;99.90
4429;DHT22;2227;47.810;8.810;2024-01-06T18:02:35;5.70;99.90
4429;DHT22;2227;47.810;8.810;2024-01-06T18:05:05;5.70;99.90
4429;DHT22;2227;47.810;8.810;2024-01-06T18:07:32;5.80;99.90
4429;DHT22;2227;47.810;8.810;2024-01-06T18:09:59;5.90;99.90
4429;DHT22;2227;47.810;8.810;2024-01-06T18:12:26;5.90;99.90
4429;DHT22;2227;47.810;8.810;2024-01-06T18:14:53;5.90;99.90
4429;DHT22;2227;47.810;8.810;2024-01-06T18:17:20;5.90;99.90
4429;DHT22;2227;47.810;8.810;2024-01-06T18:19:47;5.90;99.90
4429;DHT22;2227;47.810;8.810;2024-01-06T18:22:14;5.90;99.90
4429;DHT22;2227;47.810;8.810;2024-01-06T18:24:41;6.00;99.90
4429;DHT22;2227;47.810;8.810;2024-01-06T18:27:08;5.90;99.90
4429;DHT22;2227;47.810;8.810;2024-01-06T18:29:35;5.90;99.90
4429;DHT22;2227;47.810;8.810;2024-01-06T18:32:06;5.80;99.90
4429;DHT22;2227;47.810;8.810;2024-01-06T18:34:33;5.80;99.90
4429;DHT22;2227;47.810;8.810;2024-01-06T18:37:00;5.90;99.90
4429;DHT22;2227;47.810;8.810;2024-01-06T18:39:27;5.90;99.90
4429;DHT22;2227;47.810;8.810;2024-01-06T18:41:54;5.80;99.90
4429;DHT22;2227;47.810;8.810;2024-01-06T18:44:21;5.80;99.90
4429;DHT22;2227;47.810;8.810;2024-01-06T18:46:48;5.70;99.90
4429;DHT22;2227;47.810;8.810;2024-01-06T18:49:15;5.80;99.90
4429;DHT22;2227;47.810;8.810;2024-01-06T18:51:43;5.70;99.90
4429;DHT22;2227;47.810;8.810;2024-01-06T18:54:10;5.70;99.90
4429;DHT22;2227;47.810;8.810;2024-01-06T18:56:48;5.60;99.90
4429;DHT22;2227;47.810;8.810;2024-01-06T18:59:15;5.60;99.90
4429;DHT22;2227;47.810;8.810;2024-01-06T19:01:42;5.60;99.90
4429;DHT22;2227;47.810;8.810;2024-01-06T19:04:10;5.60;99.90
4429;DHT22;2227;47.810;8.810;2024-01-06T19:06:37;5.50;99.90
4429;DHT22;2227;47.810;8.810;2024-01-06T19:09:04;5.60;99.90
4429;DHT22;2227;47.810;8.810;2024-01-06T19:11:31;5.60;99.90
4429;DHT22;2227;47.810;8.810;2024-01-06T19:13:57;5.60;99.90
4429;DHT22;2227;47.810;8.810;2024-01-06T19:16:24;5.60;99.90
4429;DHT22;2227;47.810;8.810;2024-01-06T19:18:51;5.70;99.90
4429;DHT22;2227;47.810;8.810;2024-01-06T19:21:18;5.80;99.90
4429;DHT22;2227;47.810;8.810;2024-01-06T19:23:46;5.80;99.90
4429;DHT22;2227;47.810;8.810;2024-01-06T19:26:13;5.70;99.90
4429;DHT22;2227;47.810;8.810;2024-01-06T19:28:39;5.60;99.90
4429;DHT22;2227;47.810;8.810;2024-01-06T19:31:06;5.60;99.90
4429;DHT22;2227;47.810;8.810;2024-01-06T19:33:33;5.60;99.90
4429;DHT22;2227;47.810;8.810;2024-01-06T19:36:00;5.60;99.90
4429;DHT22;2227;47.810;8.810;2024-01-06T19:38:28;5.60;99.90
4429;DHT22;2227;47.810;8.810;2024-01-06T19:40:55;5.60;99.90
4429;DHT22;2227;47.810;8.810;2024-01-06T19:43:22;5.70;99.90
4429;DHT22;2227;47.810;8.810;2024-01-06T19:45:51;5.60;99.90
4429;DHT22;2227;47.810;8.810;2024-01-06T19:48:18;5.70;99.90
4429;DHT22;2227;47.810;8.810;2024-01-06T19:50:45;5.80;99.90
4429;DHT22;2227;47.810;8.810;2024-01-06T19:53:12;5.70;99.90
4429;DHT22;2227;47.810;8.810;2024-01-06T19:55:39;5.60;99.90
4429;DHT22;2227;47.810;8.810;2024-01-06T19:58:07;5.40;99.90
4429;DHT22;2227;47.810;8.810;2024-01-06T20:00:34;5.40;99.90
4429;DHT22;2227;47.810;8.810;2024-01-06T20:03:00;5.50;99.90
4429;DHT22;2227;47.810;8.810;2024-01-06T20:05:28;5.50;99.90
4429;DHT22;2227;47.810;8.810;2024-01-06T20:07:54;5.60;99.90
4429;DHT22;2227;47.810;8.810;2024-01-06T20:10:21;5.50;99.90
4429;DHT22;2227;47.810;8.810;2024-01-06T20:12:48;5.60;99.90
4429;DHT22;2227;47.810;8.810;2024-01-06T20:15:15;5.60;99.90
4429;DHT22;2227;47.810;8.810;2024-01-06T20:17:41;5.60;99.90
4429;DHT22;2227;47.810;8.810;2024-01-06T20:20:09;5.60;99.90
4429;DHT22;2227;47.810;8.810;2024-01-06T20:22:37;5.60;99.90
4429;DHT22;2227;47.810;8.810;2024-01-06T20:25:04;5.70;99.90
4429;DHT22;2227;47.810;8.810;2024-01-06T20:27:31;5.60;99.90
4429;DHT22;2227;47.810;8.810;2024-01-06T20:30:00;5.60;99.90
4429;DHT22;2227;47.810;8.810;2024-01-06T20:32:27;5.60;99.90
4429;DHT22;2227;47.810;8.810;2024-01-06T20:34:55;5.60;99.90
4429;DHT22;2227;47.810;8.810;2024-01-06T20:37:23;5.40;99.90
4429;DHT22;2227;47.810;8.810;2024-01-06T20:39:52;5.50;99.90
4429;DHT22;2227;47.810;8.810;2024-01-06T20:42:21;5.50;99.90
4429;DHT22;2227;47.810;8.810;2024-01-06T20:44:48;5.50;99.90
4429;DHT22;2227;47.810;8.810;2024-01-06T20:47:15;5.50;99.90
4429;DHT22;2227;47.810;8.810;2024-01-06T20:49:41;5.60;99.90
4429;DHT22;2227;47.810;8.810;2024-01-06T20:52:08;5.50;99.90
4429;DHT22;2227;47.810;8.810;2024-01-06T20:54:37;5.40;99.90
4429;DHT22;2227;47.810;8.810;2024-01-06T20:57:04;5.40;99.90
4429;DHT22;2227;47.810;8.810;2024-01-06T20:59:31;5.50;99.90
4429;DHT22;2227;47.810;8.810;2024-01-06T21:01:58;5.30;99.90
4429;DHT22;2227;47.810;8.810;2024-01-06T21:04:25;5.40;99.90
4429;DHT22;2227;47.810;8.810;2024-01-06T21:06:53;5.40;99.90
4429;DHT22;2227;47.810;8.810;2024-01-06T21:09:21;5.40;99.90
4429;DHT22;2227;47.810;8.810;2024-01-06T21:11:53;5.40;99.90
4429;DHT22;2227;47.810;8.810;2024-01-06T21:14:21;5.50;99.90
4429;DHT22;2227;47.810;8.810;2024-01-06T21:16:48;5.40;99.90
4429;DHT22;2227;47.810;8.810;2024-01-06T21:19:17;5.30;99.90
4429;DHT22;2227;47.810;8.810;2024-01-06T21:21:45;5.50;99.90
4429;DHT22;2227;47.810;8.810;2024-01-06T21:24:12;5.50;99.90
4429;DHT22;2227;47.810;8.810;2024-01-06T21:26:39;5.50;99.90
4429;DHT22;2227;47.810;8.810;2024-01-06T21:29:06;5.50;99.90
4429;DHT22;2227;47.810;8.810;2024-01-06T21:31:33;5.40;99.90
4429;DHT22;2227;47.810;8.810;2024-01-06T21:33:59;5.30;99.90
4429;DHT22;2227;47.810;8.810;2024-01-06T21:36:26;5.20;99.90